Oud-Turnhout, Belgium
Current Conditions -  °F | °C
As of 10:25 PM on Wednesday 26 Nov 2014 (Local Time) from EHGR Reporting Station
Haze Haze  
Wind Chill: 38°   Ceiling: 800
Heat Index: 43°   Visibility: 3mi
Dew Point: 43°   Wind: 8mph
Humidity: 100%   Direction: 130°SE
Pressure: 29.83"   Gusts: NA
Location:  51.32°N, 4.98°E
Report Text: EHGR 262125Z AUTO 13007KT 5000 BR OVC008 06/06 Q1010 GRN
Loading
Personal Weather Stations






























Interactive Weather Map New forecast layout! Learn more

10-Day Weather Forecast

Advertisements
Track Severe Weather on mobile